Antwerpen Express — DGAF — position and weather

sailwx.info

Track history (hours):
 
Tides and Currents Weather Stations Pressure Air Temp Water Temp Dewpoint Dewpoint Depression Visibility Wind Speed Wind Dir Waves Ship Positions

Antwerpen Express

Last reported at 2018-Jul-19 15:00 UTC. Time now 2018-Jul-22 01:14 UTC.
Position N 10°18' W 086°36'.

Length 294.2 m; beam 32.2 m; draft 13.6 m.

Type: Ship. MMSI: 211311970.

Wind from 050 at 31 knots

Barometer 1010.6 mb
Air temperature 29.3 ° C
Visibility: greater than 5.4 NM
Dewpoint 23.3 ° C
Water temperature 29.0 ° C

Date/timePositionNaut miles runAvg speedWind from/ knotsBaromVisibWave heightAir tempDewpointWater temp
2018-Jul-19 15:00N 10°18' W 086°36'5518.3 050 / 311010.6 5.4 29.323.329.0
2018-Jul-19 12:00N 09°42' W 085°54'359 8.5 030 / 101008.610.8 26.921.430.0
2018-Jul-17 18:00N 09°11' W 079°52'4 8.2
2018-Jul-17 17:31N 09°13' W 079°55'3 6.6
2018-Jul-17 17:00N 09°16' W 079°55'0 0.6
2018-Jul-17 16:30N 09°16' W 079°55'0 0.3
2018-Jul-17 15:44N 09°17' W 079°55'0 0.8
2018-Jul-17 15:30N 09°17' W 079°55'0 0.9
2018-Jul-17 15:00N 09°17' W 079°55'3 5.7
2018-Jul-17 14:29N 09°20' W 079°55'3 6.3
2018-Jul-17 14:00N 09°23' W 079°55'4 7.7
2018-Jul-17 13:30N 09°27' W 079°55'4 7.6
2018-Jul-17 12:59N 09°31' W 079°55'2 4.7
2018-Jul-17 12:31N 09°30' W 079°57'0 0.5
2018-Jul-17 12:00N 09°30' W 079°56'0 0.0
2018-Jul-17 11:30N 09°30' W 079°56'0 0.0
2018-Jul-17 11:00N 09°30' W 079°56'0 0.0
2018-Jul-17 10:30N 09°30' W 079°56'0 0.0
2018-Jul-17 10:00N 09°30' W 079°56'0 0.0
2018-Jul-17 09:29N 09°30' W 079°56'0 0.0
2018-Jul-17 08:59N 09°30' W 079°56'0 0.0
2018-Jul-17 08:29N 09°30' W 079°56'0 0.0
2018-Jul-17 07:59N 09°30' W 079°56'0 0.0
2018-Jul-17 07:28N 09°30' W 079°56'0 0.0
2018-Jul-17 06:58N 09°30' W 079°56'0 0.0
2018-Jul-17 06:28N 09°30' W 079°56'0 0.0
2018-Jul-17 05:58N 09°30' W 079°56'0 0.0
2018-Jul-17 05:28N 09°30' W 079°56'0 0.0
2018-Jul-17 05:00N 09°30' W 079°56'0 0.0
2018-Jul-17 04:30N 09°30' W 079°56'0 0.0
2018-Jul-17 04:00N 09°30' W 079°56'0 0.0
2018-Jul-17 03:30N 09°30' W 079°56'0 0.0
2018-Jul-17 02:59N 09°30' W 079°56'0 0.0
2018-Jul-17 02:29N 09°30' W 079°56'0 0.0
2018-Jul-17 01:59N 09°30' W 079°56'0 0.0
2018-Jul-17 01:17N 09°30' W 079°56'0 0.0
2018-Jul-17 00:59N 09°30' W 079°56'0 0.0
2018-Jul-17 00:25N 09°30' W 079°56'0 0.1
2018-Jul-16 23:28N 09°30' W 079°56'0 0.1
2018-Jul-16 22:58N 09°30' W 079°56'0 0.1
2018-Jul-16 22:30N 09°30' W 079°56'0 0.0
2018-Jul-16 22:00N 09°30' W 079°56'0 0.0
2018-Jul-16 21:30N 09°30' W 079°56'0 0.1
2018-Jul-16 21:00N 09°30' W 079°56'0 0.0
2018-Jul-16 20:30N 09°30' W 079°56'0 0.0
2018-Jul-16 19:59N 09°30' W 079°56'0 0.0
2018-Jul-16 19:23N 09°30' W 079°56'0 0.1
2018-Jul-16 18:56N 09°30' W 079°56'0 0.1
2018-Jul-16 18:29N 09°30' W 079°56'0 0.1
2018-Jul-16 17:59N 09°30' W 079°56'0 0.0
2018-Jul-16 17:28N 09°30' W 079°56'0 0.0
2018-Jul-16 16:58N 09°30' W 079°56'0 0.0
2018-Jul-16 16:28N 09°30' W 079°56'0 0.1
2018-Jul-16 15:58N 09°30' W 079°56'0 0.0
2018-Jul-16 15:30N 09°30' W 079°56'0 0.0
2018-Jul-16 15:00N 09°30' W 079°56'0 0.0
2018-Jul-16 14:30N 09°30' W 079°56'0 0.0
2018-Jul-16 14:00N 09°30' W 079°56'0 0.0
2018-Jul-16 13:30N 09°30' W 079°56'0 0.0
2018-Jul-16 12:59N 09°30' W 079°56'0 0.0
2018-Jul-16 12:29N 09°30' W 079°56'0 0.0
2018-Jul-16 11:59N 09°30' W 079°56'0 0.1
2018-Jul-16 11:29N 09°30' W 079°56'0 0.1
2018-Jul-16 10:49N 09°30' W 079°56'0 0.0
2018-Jul-16 10:28N 09°30' W 079°56'0 0.0
2018-Jul-16 09:58N 09°30' W 079°56'0 0.0
2018-Jul-16 09:28N 09°30' W 079°56'0 0.0
2018-Jul-16 08:55N 09°30' W 079°56'0 0.0
2018-Jul-16 08:30N 09°30' W 079°56'0 0.0
2018-Jul-16 07:48N 09°30' W 079°56'0 0.0
2018-Jul-16 07:30N 09°30' W 079°56'0 0.0
2018-Jul-16 06:42N 09°30' W 079°56'0 0.1
2018-Jul-16 06:27N 09°30' W 079°56'0 0.0
2018-Jul-16 05:56N 09°30' W 079°56'0 0.0
2018-Jul-16 05:23N 09°30' W 079°56'0 0.0
2018-Jul-16 04:14N 09°30' W 079°56'0 0.1
2018-Jul-16 04:00N 09°30' W 079°56'0 0.0
2018-Jul-16 03:28N 09°30' W 079°56'2 4.9
2018-Jul-16 03:00N 09°30' W 079°54'292.5 1010.6 5.4 28.525.129.0
2018-Jul-16 02:58N 09°30' W 079°56'0 0.0
2018-Jul-16 02:19N 09°30' W 079°56'0 0.0
2018-Jul-16 01:55N 09°30' W 079°56'0 0.0
2018-Jul-16 01:24N 09°30' W 079°56'0 0.0
2018-Jul-16 01:01N 09°30' W 079°56'0 0.1
2018-Jul-16 00:30N 09°30' W 079°56'1 2.0
2018-Jul-16 00:00N 09°30' W 079°55'11212.4
2018-Jul-15 15:00N 10°00' W 078°06'268 5.9 040 / 151010.4 5.4 30.024.229.0
2018-Jul-13 18:00N 11°42' W 073°54'5016.8 070 / 221010.9 5.4 29.423.728.0
2018-Jul-13 15:00N 12°00' W 073°06'33115.8 070 / 231012.9 5.4 28.423.826.0
2018-Jul-12 18:00N 14°12' W 067°54'5518.4 090 / 141016.6 5.4 30.923.330.0
2018-Jul-12 15:00N 14°30' W 067°00'14916.6 090 / 151017.710.8 29.723.630.0
2018-Jul-12 06:00N 15°24' W 064°36'10717.8 100 / 151016.7 5.4 27.819.730.0
2018-Jul-12 00:00N 16°06' W 062°54'58116.6 070 / 201016.310.8 27.621.930.0
2018-Jul-10 13:00N 21°00' W 054°06'11216.0 070 / 131021.510.8 28.521.328.0
2018-Jul-10 06:00N 22°00' W 052°24'20617.2 060 / 161020.910.8 25.219.528.0
2018-Jul-09 18:00N 23°36' W 049°06'   040 / 131021.910.8 30.820.228.0
Track history (hours):
 
Tides and Currents Weather Stations Pressure Air Temp Water Temp Dewpoint Dewpoint Depression Visibility Wind Speed Wind Dir Waves Ship Positions

Antwerpen Express

Last reported at 2018-Jul-19 15:00 UTC. Time now 2018-Jul-22 01:14 UTC.
Position N 10°18' W 086°36'.

Length 294.2 m; beam 32.2 m; draft 13.6 m.

Type: Ship. MMSI: 211311970.

Wind from 050 at 31 knots

Barometer 1010.6 mb
Air temperature 29.3 ° C
Visibility: greater than 5.4 NM
Dewpoint 23.3 ° C
Water temperature 29.0 ° C

Date/timePositionNaut miles runAvg speedWind from/ knotsBaromVisibWave heightAir tempDewpointWater temp
2018-Jul-19 15:00N 10°18' W 086°36'5518.3 050 / 311010.6 5.4 29.323.329.0
2018-Jul-19 12:00N 09°42' W 085°54'359 8.5 030 / 101008.610.8 26.921.430.0
2018-Jul-17 18:00N 09°11' W 079°52'4 8.2
2018-Jul-17 17:31N 09°13' W 079°55'3 6.6
2018-Jul-17 17:00N 09°16' W 079°55'0 0.6
2018-Jul-17 16:30N 09°16' W 079°55'0 0.3
2018-Jul-17 15:44N 09°17' W 079°55'0 0.8
2018-Jul-17 15:30N 09°17' W 079°55'0 0.9
2018-Jul-17 15:00N 09°17' W 079°55'3 5.7
2018-Jul-17 14:29N 09°20' W 079°55'3 6.3
2018-Jul-17 14:00N 09°23' W 079°55'4 7.7
2018-Jul-17 13:30N 09°27' W 079°55'4 7.6
2018-Jul-17 12:59N 09°31' W 079°55'2 4.7
2018-Jul-17 12:31N 09°30' W 079°57'0 0.5
2018-Jul-17 12:00N 09°30' W 079°56'0 0.0
2018-Jul-17 11:30N 09°30' W 079°56'0 0.0
2018-Jul-17 11:00N 09°30' W 079°56'0 0.0
2018-Jul-17 10:30N 09°30' W 079°56'0 0.0
2018-Jul-17 10:00N 09°30' W 079°56'0 0.0
2018-Jul-17 09:29N 09°30' W 079°56'0 0.0
2018-Jul-17 08:59N 09°30' W 079°56'0 0.0
2018-Jul-17 08:29N 09°30' W 079°56'0 0.0
2018-Jul-17 07:59N 09°30' W 079°56'0 0.0
2018-Jul-17 07:28N 09°30' W 079°56'0 0.0
2018-Jul-17 06:58N 09°30' W 079°56'0 0.0
2018-Jul-17 06:28N 09°30' W 079°56'0 0.0
2018-Jul-17 05:58N 09°30' W 079°56'0 0.0
2018-Jul-17 05:28N 09°30' W 079°56'0 0.0
2018-Jul-17 05:00N 09°30' W 079°56'0 0.0
2018-Jul-17 04:30N 09°30' W 079°56'0 0.0
2018-Jul-17 04:00N 09°30' W 079°56'0 0.0
2018-Jul-17 03:30N 09°30' W 079°56'0 0.0
2018-Jul-17 02:59N 09°30' W 079°56'0 0.0
2018-Jul-17 02:29N 09°30' W 079°56'0 0.0
2018-Jul-17 01:59N 09°30' W 079°56'0 0.0
2018-Jul-17 01:17N 09°30' W 079°56'0 0.0
2018-Jul-17 00:59N 09°30' W 079°56'0 0.0
2018-Jul-17 00:25N 09°30' W 079°56'0 0.1
2018-Jul-16 23:28N 09°30' W 079°56'0 0.1
2018-Jul-16 22:58N 09°30' W 079°56'0 0.1
2018-Jul-16 22:30N 09°30' W 079°56'0 0.0
2018-Jul-16 22:00N 09°30' W 079°56'0 0.0
2018-Jul-16 21:30N 09°30' W 079°56'0 0.1
2018-Jul-16 21:00N 09°30' W 079°56'0 0.0
2018-Jul-16 20:30N 09°30' W 079°56'0 0.0
2018-Jul-16 19:59N 09°30' W 079°56'0 0.0
2018-Jul-16 19:23N 09°30' W 079°56'0 0.1
2018-Jul-16 18:56N 09°30' W 079°56'0 0.1
2018-Jul-16 18:29N 09°30' W 079°56'0 0.1
2018-Jul-16 17:59N 09°30' W 079°56'0 0.0
2018-Jul-16 17:28N 09°30' W 079°56'0 0.0
2018-Jul-16 16:58N 09°30' W 079°56'0 0.0
2018-Jul-16 16:28N 09°30' W 079°56'0 0.1
2018-Jul-16 15:58N 09°30' W 079°56'0 0.0
2018-Jul-16 15:30N 09°30' W 079°56'0 0.0
2018-Jul-16 15:00N 09°30' W 079°56'0 0.0
2018-Jul-16 14:30N 09°30' W 079°56'0 0.0
2018-Jul-16 14:00N 09°30' W 079°56'0 0.0
2018-Jul-16 13:30N 09°30' W 079°56'0 0.0
2018-Jul-16 12:59N 09°30' W 079°56'0 0.0
2018-Jul-16 12:29N 09°30' W 079°56'0 0.0
2018-Jul-16 11:59N 09°30' W 079°56'0 0.1
2018-Jul-16 11:29N 09°30' W 079°56'0 0.1
2018-Jul-16 10:49N 09°30' W 079°56'0 0.0
2018-Jul-16 10:28N 09°30' W 079°56'0 0.0
2018-Jul-16 09:58N 09°30' W 079°56'0 0.0
2018-Jul-16 09:28N 09°30' W 079°56'0 0.0
2018-Jul-16 08:55N 09°30' W 079°56'0 0.0
2018-Jul-16 08:30N 09°30' W 079°56'0 0.0
2018-Jul-16 07:48N 09°30' W 079°56'0 0.0
2018-Jul-16 07:30N 09°30' W 079°56'0 0.0
2018-Jul-16 06:42N 09°30' W 079°56'0 0.1
2018-Jul-16 06:27N 09°30' W 079°56'0 0.0
2018-Jul-16 05:56N 09°30' W 079°56'0 0.0
2018-Jul-16 05:23N 09°30' W 079°56'0 0.0
2018-Jul-16 04:14N 09°30' W 079°56'0 0.1
2018-Jul-16 04:00N 09°30' W 079°56'0 0.0
2018-Jul-16 03:28N 09°30' W 079°56'2 4.9
2018-Jul-16 03:00N 09°30' W 079°54'292.5 1010.6 5.4 28.525.129.0
2018-Jul-16 02:58N 09°30' W 079°56'0 0.0
2018-Jul-16 02:19N 09°30' W 079°56'0 0.0
2018-Jul-16 01:55N 09°30' W 079°56'0 0.0
2018-Jul-16 01:24N 09°30' W 079°56'0 0.0
2018-Jul-16 01:01N 09°30' W 079°56'0 0.1
2018-Jul-16 00:30N 09°30' W 079°56'1 2.0
2018-Jul-16 00:00N 09°30' W 079°55'11212.4
2018-Jul-15 15:00N 10°00' W 078°06'268 5.9 040 / 151010.4 5.4 30.024.229.0
2018-Jul-13 18:00N 11°42' W 073°54'5016.8 070 / 221010.9 5.4 29.423.728.0
2018-Jul-13 15:00N 12°00' W 073°06'33115.8 070 / 231012.9 5.4 28.423.826.0
2018-Jul-12 18:00N 14°12' W 067°54'5518.4 090 / 141016.6 5.4 30.923.330.0
2018-Jul-12 15:00N 14°30' W 067°00'14916.6 090 / 151017.710.8 29.723.630.0
2018-Jul-12 06:00N 15°24' W 064°36'10717.8 100 / 151016.7 5.4 27.819.730.0
2018-Jul-12 00:00N 16°06' W 062°54'58116.6 070 / 201016.310.8 27.621.930.0
2018-Jul-10 13:00N 21°00' W 054°06'11216.0 070 / 131021.510.8 28.521.328.0
2018-Jul-10 06:00N 22°00' W 052°24'20617.2 060 / 161020.910.8 25.219.528.0
2018-Jul-09 18:00N 23°36' W 049°06'   040 / 131021.910.8 30.820.228.0

Dump ship's entire track history